createdAt,value
2022-11-21T00:01:39.005Z,25.9
2022-11-21T00:07:00.738Z,25.8
2022-11-21T00:12:37.363Z,25.6
2022-11-21T00:18:20.224Z,25.3
2022-11-21T00:23:26.539Z,29.3
2022-11-21T00:29:07.869Z,31.6
2022-11-21T00:34:45.257Z,27.1
2022-11-21T00:40:06.493Z,26.2
2022-11-21T00:45:44.130Z,25.9
2022-11-21T00:51:05.243Z,25.8
2022-11-21T00:56:10.988Z,25.5
2022-11-21T01:01:33.026Z,25.4
2022-11-21T01:06:54.577Z,28.8
2022-11-21T01:12:00.266Z,31.4
2022-11-21T01:17:23.275Z,27.5
2022-11-21T01:23:00.600Z,26.2
2022-11-21T01:28:37.549Z,25.9
2022-11-21T01:34:15.766Z,25.8
2022-11-21T01:39:38.058Z,25.6
2022-11-21T01:45:00.625Z,25.3
2022-11-21T01:50:45.864Z,28.9
2022-11-21T01:56:08.478Z,31.1
2022-11-21T02:01:15.335Z,27.1
2022-11-21T02:06:53.866Z,26.2
2022-11-21T02:17:07.672Z,25.8
2022-11-21T02:22:30.311Z,25.6
2022-11-21T02:27:42.610Z,25.4
2022-11-21T02:32:48.361Z,26.9
2022-11-21T02:38:11.000Z,30.3
2022-11-21T02:43:33.888Z,29
2022-11-21T02:49:11.501Z,26.6
2022-11-21T02:54:49.729Z,26
2022-11-21T03:00:33.607Z,25.8
2022-11-21T03:05:55.863Z,25.7
2022-11-21T03:11:34.354Z,25.5
2022-11-21T03:17:11.912Z,26.3
2022-11-21T03:22:33.765Z,30.2
2022-11-21T03:28:11.621Z,28.9
2022-11-21T03:33:49.275Z,26.5
2022-11-21T03:39:27.219Z,26
2022-11-21T03:45:05.837Z,25.8
2022-11-21T03:50:27.851Z,25.7
2022-11-21T03:55:50.071Z,25.5
2022-11-21T04:01:31.309Z,25
2022-11-21T04:07:11.943Z,29.6
2022-11-21T04:12:49.445Z,29.8
2022-11-21T04:18:32.973Z,26.7
2022-11-21T04:24:10.897Z,26
2022-11-21T04:29:47.548Z,25.9
2022-11-21T04:35:11.116Z,25.7
2022-11-21T04:40:33.494Z,25.5
2022-11-21T04:45:54.921Z,25
2022-11-21T04:51:36.819Z,29.4
2022-11-21T04:57:03.588Z,30.3
2022-11-21T05:02:26.455Z,26.9
2022-11-21T05:07:49.702Z,26.3
2022-11-21T05:13:11.532Z,26.1
2022-11-21T05:18:49.060Z,25.9
2022-11-21T05:24:14.676Z,25.6
2022-11-21T05:29:40.391Z,25.4
2022-11-21T05:35:17.788Z,28.6
2022-11-21T05:41:00.747Z,31.3
2022-11-21T05:46:38.413Z,27.6
2022-11-21T05:51:44.691Z,26.4
2022-11-21T05:57:12.013Z,26.1
2022-11-21T06:02:55.061Z,25.9
2022-11-21T06:08:21.587Z,25.7
2022-11-21T06:13:48.705Z,25.4
2022-11-21T06:19:14.929Z,28.2
2022-11-21T06:24:39.022Z,30.8
2022-11-21T06:30:21.953Z,28.4
2022-11-21T06:35:59.985Z,26.6
2022-11-21T06:41:28.419Z,26.3
2022-11-21T06:47:08.280Z,26.1
2022-11-21T06:52:30.069Z,25.9
2022-11-21T06:58:09.901Z,25.6
2022-11-21T07:03:53.254Z,25.6
2022-11-21T07:10:06.794Z,29.5
2022-11-21T07:16:12.579Z,29.4
2022-11-21T07:21:54.196Z,26.9
2022-11-21T07:27:33.448Z,26.3
2022-11-21T07:33:10.911Z,26.1
2022-11-21T07:38:34.030Z,25.9
2022-11-21T07:44:17.669Z,25.7
2022-11-21T07:49:39.286Z,26.1
2022-11-21T07:55:17.734Z,29.4
2022-11-21T08:00:45.515Z,30.5
2022-11-21T08:06:24.776Z,27.3
2022-11-21T08:12:09.471Z,26.6
2022-11-21T08:17:46.898Z,26.3
2022-11-21T08:23:29.857Z,26.1
2022-11-21T08:29:15.025Z,25.9
2022-11-21T08:34:53.035Z,25.6
2022-11-21T08:46:06.376Z,30.4
2022-11-21T08:51:48.963Z,28.8
2022-11-21T08:57:28.130Z,26.7
2022-11-21T09:03:06.308Z,26.3
2022-11-21T09:08:51.055Z,26.1
2022-11-21T09:14:15.253Z,25.8
2022-11-21T09:20:03.669Z,25.6
2022-11-21T09:25:41.877Z,27.3
2022-11-21T09:31:19.018Z,30.3
2022-11-21T09:36:59.216Z,29
2022-11-21T09:42:38.789Z,26.8
2022-11-21T09:48:16.777Z,26.3
2022-11-21T09:53:57.199Z,26.1
2022-11-21T09:59:35.415Z,25.9
2022-11-21T10:05:20.234Z,25.6
2022-11-21T10:11:00.078Z,27.2
2022-11-21T10:16:42.249Z,30.1
2022-11-21T10:22:20.681Z,29.3
2022-11-21T10:27:59.326Z,26.8
2022-11-21T10:33:38.067Z,26.3
2022-11-21T10:39:20.604Z,26.1
2022-11-21T10:44:59.512Z,25.9
2022-11-21T10:50:22.013Z,25.7
2022-11-21T10:56:04.233Z,27
2022-11-21T11:01:44.870Z,30
2022-11-21T11:07:50.990Z,29.4
2022-11-21T11:14:01.634Z,26.8
2022-11-21T11:19:39.855Z,26.3
2022-11-21T11:25:17.872Z,26.1
2022-11-21T11:30:41.527Z,25.9
2022-11-21T11:36:04.657Z,25.6
2022-11-21T11:41:29.157Z,27.1
2022-11-21T11:47:07.664Z,29.9
2022-11-21T11:53:16.070Z,29.6
2022-11-21T11:58:54.234Z,26.5
2022-11-21T12:04:43.081Z,25.9
2022-11-21T12:11:58.528Z,25.8
2022-11-21T12:17:44.060Z,25.5
2022-11-21T12:23:23.354Z,25.3
2022-11-21T12:29:03.707Z,28.6
2022-11-21T12:34:47.887Z,31
2022-11-21T12:40:38.736Z,27.5
2022-11-21T12:46:21.957Z,26.1
2022-11-21T12:51:50.304Z,25.8
2022-11-21T12:57:31.775Z,25.6
2022-11-21T13:03:01.846Z,25.4
2022-11-21T13:08:41.376Z,27.3
2022-11-21T13:14:20.286Z,30.1
2022-11-21T13:19:58.430Z,29.1
2022-11-21T13:25:37.619Z,26.8
2022-11-21T13:31:00.739Z,25.4
2022-11-21T13:36:41.313Z,25
2022-11-21T13:42:20.615Z,24.5
2022-11-21T13:48:42.930Z,24.3
2022-11-21T13:54:29.402Z,23.9
2022-11-21T14:00:07.730Z,23.6
2022-11-21T14:05:46.179Z,27.9
2022-11-21T14:11:26.330Z,30.6
2022-11-21T14:17:07.582Z,28.1
2022-11-21T14:22:51.055Z,26.3
2022-11-21T14:28:35.771Z,25
2022-11-21T14:34:17.816Z,24.7
2022-11-21T14:40:34.478Z,24.6
2022-11-21T14:46:13.620Z,24.4
2022-11-21T14:51:48.145Z,24.3
2022-11-21T14:57:58.102Z,24.2
2022-11-21T15:04:04.927Z,30.3
2022-11-21T15:11:41.768Z,34.3
2022-11-21T15:18:18.320Z,38.5
2022-11-21T15:24:05.258Z,41
2022-11-21T15:29:43.976Z,41.1
2022-11-21T15:36:04.763Z,39.8
2022-11-21T15:58:54.263Z,41.8
2022-11-21T16:04:22.457Z,41.9
2022-11-21T16:10:04.545Z,41.7
2022-11-21T16:15:47.427Z,43
2022-11-21T16:21:32.081Z,44
2022-11-21T16:27:16.850Z,43.8
2022-11-21T16:32:39.637Z,43
2022-11-21T16:38:20.203Z,42.8
2022-11-21T16:44:06.276Z,42.9
2022-11-21T16:49:33.109Z,43.1
2022-11-21T16:55:16.209Z,43.3
2022-11-21T17:00:39.056Z,43.6
2022-11-21T17:06:18.653Z,43.8
2022-11-21T17:11:57.577Z,43.9
2022-11-21T17:17:19.740Z,43.9
2022-11-21T17:22:42.875Z,43.8
2022-11-21T17:28:21.915Z,42.3
2022-11-21T17:34:05.713Z,40.5
2022-11-21T17:39:48.108Z,39.6
2022-11-21T17:45:27.093Z,38.3
2022-11-21T17:50:57.177Z,37.6
2022-11-21T17:56:20.325Z,38.8
2022-11-21T18:02:07.437Z,37.3
2022-11-21T18:07:51.918Z,41.3
2022-11-21T18:13:52.241Z,43.6
2022-11-21T18:19:23.067Z,44.3
2022-11-21T18:25:03.609Z,44.5
2022-11-21T18:30:59.287Z,44.4
2022-11-21T18:36:07.039Z,44.4
2022-11-21T18:42:15.476Z,44.4
2022-11-21T18:48:10.981Z,43.6
2022-11-21T18:54:11.129Z,41.9
2022-11-21T18:59:35.255Z,41.5
2022-11-21T19:04:59.492Z,44
2022-11-21T19:10:42.945Z,44.1
2022-11-21T19:16:22.615Z,43.6
2022-11-21T19:22:36.769Z,43.3
2022-11-21T19:28:16.773Z,43.1
2022-11-21T19:33:59.743Z,42.9
2022-11-21T19:39:24.918Z,43.2
2022-11-21T19:44:49.534Z,43.6
2022-11-21T19:50:30.560Z,43.3
2022-11-21T19:56:06.049Z,43.3
2022-11-21T20:01:30.837Z,43.8
2022-11-21T20:07:02.267Z,43.6
2022-11-21T20:12:45.072Z,42.8
2022-11-21T20:18:09.697Z,42.8
2022-11-21T20:23:49.024Z,43.3
2022-11-21T20:29:35.866Z,43.3
2022-11-21T20:36:07.834Z,42.9
2022-11-21T20:41:45.957Z,42.4
2022-11-21T20:49:33.365Z,42.4
2022-11-21T20:58:08.351Z,42.5
2022-11-21T21:03:48.122Z,43.1
2022-11-21T21:09:11.473Z,43.7
2022-11-21T21:15:51.044Z,43.8
2022-11-21T21:21:47.938Z,42.9
2022-11-21T21:27:32.537Z,41.1
2022-11-21T21:33:16.262Z,38.6
2022-11-21T21:38:59.017Z,39.5
2022-11-21T21:44:37.571Z,38.1
2022-11-21T21:50:16.219Z,40.1
2022-11-21T21:55:54.776Z,37.4
2022-11-21T22:01:39.289Z,37.7
2022-11-21T22:06:50.830Z,37.8
2022-11-21T22:12:28.425Z,37.4
2022-11-21T22:18:06.210Z,36.9
2022-11-21T22:23:33.534Z,36.4
2022-11-21T22:29:25.691Z,35.7
2022-11-21T22:35:06.332Z,34.9
2022-11-21T22:40:29.036Z,33.9
2022-11-21T22:46:13.061Z,33.6
2022-11-21T22:51:36.056Z,33.4
2022-11-21T22:57:17.502Z,30.8
2022-11-21T23:02:55.532Z,29.3
2022-11-21T23:08:33.840Z,28.8
2022-11-21T23:13:56.986Z,28.4
2022-11-21T23:19:04.709Z,28.2
2022-11-21T23:24:26.680Z,27.9
2022-11-21T23:35:27.306Z,27.6
2022-11-21T23:41:04.344Z,27.4
2022-11-21T23:46:42.679Z,27.3
2022-11-21T23:52:04.804Z,27.1
2022-11-21T23:57:27.582Z,26.9
